PH-0074 weather

Lal-lo Airstrip
Lal-lo, Cagayan Province, Philippines

Public forecast

Using degrees Celsius for public forecast. Weather courtesy of forecast.io.

Closest aviation weather report (METAR) to Lal-lo Airstrip

Report is more than 2 hours old.

Closest report is Laoag International Airport, 65.9 nm (122.1 km) W. Retrieved 2020/05/31 15:00 UTC (3 hours ago):

RPLI 311500Z 07004KT 9999 FEW018 29/25 Q1012 NOSIG RMK A2988

Closest aviation forecast (TAF) to Lal-lo Airstrip

Closest forecast is Laoag International Airport, 65.9 nm (122.1 km) W. Retrieved 2020/05/31 12:00 UTC (6 hours ago):

TAF RPLI 311100Z 3112/0112 33006KT 9999 FEW018 TEMPO 3112/3118 11005KT FEW017CB SCT100